Time;durP1;ratioP1;P1;durP2;ratioP2;P2;SDS_P1;SDS_P2;PMS_P1;PMS_P2;Temp;Humidity;BMP_temperature;BMP_pressure;BME280_temperature;BME280_humidity;BME280_pressure;Samples;Min_cycle;Max_cycle;Signal;HPM_P1;HPM_P2
2023/12/26 00:00:14;;;;;;;88.22;50.85;;;2.60;99.90;;;;;;5138511;27;20027;-74
2023/12/26 00:02:40;;;;;;;100.05;51.65;;;2.70;99.90;;;;;;5138902;27;20020;-74
2023/12/26 00:05:06;;;;;;;119.32;60.50;;;2.70;99.90;;;;;;5119791;27;20019;-75
2023/12/26 00:07:31;;;;;;;109.40;59.63;;;2.80;99.90;;;;;;5138504;27;20773;-74
2023/12/26 00:09:57;;;;;;;149.38;60.15;;;2.80;99.90;;;;;;5116352;28;20126;-74
2023/12/26 00:12:25;;;;;;;142.30;60.25;;;2.80;99.90;;;;;;5130259;27;20502;-75
2023/12/26 00:14:51;;;;;;;131.10;59.40;;;2.90;99.90;;;;;;5138268;27;20497;-75
2023/12/26 00:17:17;;;;;;;125.28;64.40;;;2.90;99.90;;;;;;5138485;27;20073;-75
2023/12/26 00:19:43;;;;;;;124.75;66.70;;;2.90;99.90;;;;;;5133228;27;20051;-75
2023/12/26 00:22:08;;;;;;;135.63;66.55;;;3.00;99.90;;;;;;5119702;27;20566;-73
2023/12/26 00:24:34;;;;;;;123.70;64.68;;;3.00;99.90;;;;;;5138196;27;20027;-75
2023/12/26 00:27:00;;;;;;;178.93;73.78;;;3.00;99.90;;;;;;5138314;27;20030;-75
2023/12/26 00:29:25;;;;;;;193.35;74.20;;;3.00;99.90;;;;;;5137835;27;20027;-75
2023/12/26 00:31:51;;;;;;;129.93;64.72;;;3.00;99.90;;;;;;5116104;28;20441;-73
2023/12/26 00:34:17;;;;;;;118.57;54.55;;;2.90;99.90;;;;;;5135341;27;20023;-75
2023/12/26 00:36:42;;;;;;;127.75;55.70;;;3.00;99.90;;;;;;5138003;27;20030;-75
2023/12/26 00:39:08;;;;;;;109.38;53.53;;;2.90;99.90;;;;;;5119349;27;20019;-73
2023/12/26 00:41:34;;;;;;;102.68;54.00;;;2.90;99.90;;;;;;5119626;27;20072;-73
2023/12/26 00:43:59;;;;;;;199.98;67.53;;;2.90;99.90;;;;;;5137685;27;20010;-74
2023/12/26 00:46:25;;;;;;;128.45;57.97;;;2.80;99.90;;;;;;5137917;27;20034;-76
2023/12/26 00:48:51;;;;;;;111.65;54.25;;;2.80;99.90;;;;;;5137325;27;20083;-74
2023/12/26 00:51:16;;;;;;;108.72;52.25;;;2.90;99.90;;;;;;5119168;27;20015;-74
2023/12/26 00:53:42;;;;;;;115.97;50.38;;;2.90;99.90;;;;;;5137328;27;20463;-74
2023/12/26 00:56:07;;;;;;;160.75;52.47;;;2.90;99.90;;;;;;5119113;27;20411;-75
2023/12/26 00:58:33;;;;;;;175.05;56.05;;;3.00;99.90;;;;;;5137542;27;20126;-76
2023/12/26 01:00:59;;;;;;;120.28;49.28;;;2.90;99.90;;;;;;5119211;27;20030;-76
2023/12/26 01:03:24;;;;;;;104.88;46.15;;;2.90;99.90;;;;;;5137125;27;20019;-76
2023/12/26 01:05:51;;;;;;;160.25;66.05;;;3.00;99.90;;;;;;5137543;27;20744;-74
2023/12/26 01:08:18;;;;;;;118.25;53.83;;;2.90;99.90;;;;;;5137132;27;20519;-74
2023/12/26 01:10:44;;;;;;;147.30;63.28;;;2.90;99.90;;;;;;5137418;27;20529;-75
2023/12/26 01:13:10;;;;;;;149.77;69.47;;;2.90;99.90;;;;;;5118728;27;20099;-74
2023/12/26 01:15:36;;;;;;;193.35;68.13;;;2.80;99.90;;;;;;5137219;27;20028;-74
2023/12/26 01:18:02;;;;;;;210.60;73.20;;;2.80;99.90;;;;;;5136880;27;20123;-74
2023/12/26 01:20:28;;;;;;;137.90;61.42;;;2.80;99.90;;;;;;5115588;28;20050;-74
2023/12/26 01:22:53;;;;;;;109.35;54.83;;;2.70;99.90;;;;;;5134957;27;20110;-75
2023/12/26 01:25:19;;;;;;;146.90;62.15;;;2.70;99.90;;;;;;5137104;27;20041;-74
2023/12/26 01:27:45;;;;;;;174.57;60.80;;;2.70;99.90;;;;;;5136875;27;20019;-74
2023/12/26 01:30:11;;;;;;;149.85;65.18;;;2.70;99.90;;;;;;5137195;27;20094;-74
2023/12/26 01:32:36;;;;;;;121.07;56.60;;;2.60;99.90;;;;;;5136623;27;20042;-75
2023/12/26 01:35:02;;;;;;;102.28;51.60;;;2.70;99.90;;;;;;5118274;27;20037;-74
2023/12/26 01:37:28;;;;;;;124.80;60.70;;;2.70;99.90;;;;;;5136679;27;20015;-75
2023/12/26 01:39:53;;;;;;;106.18;53.72;;;2.80;99.90;;;;;;5114770;28;20455;-74
2023/12/26 01:42:19;;;;;;;103.50;55.40;;;2.70;99.90;;;;;;5133976;27;20719;-75
2023/12/26 01:44:45;;;;;;;104.70;46.47;;;2.70;99.90;;;;;;5136783;27;20038;-75
2023/12/26 01:47:12;;;;;;;74.70;42.53;;;2.70;99.90;;;;;;5136040;27;20050;-75
2023/12/26 01:49:37;;;;;;;91.47;42.75;;;2.70;99.90;;;;;;5136640;27;20395;-75
2023/12/26 01:52:06;;;;;;;91.60;44.97;;;2.60;99.90;;;;;;5136418;27;20027;-75
2023/12/26 01:54:33;;;;;;;84.88;44.88;;;2.60;99.90;;;;;;5118226;27;20050;-75
2023/12/26 01:56:59;;;;;;;86.40;42.67;;;2.50;99.90;;;;;;5136556;27;20012;-75
2023/12/26 01:59:26;;;;;;;76.78;40.55;;;2.40;99.90;;;;;;5136873;27;20068;-75
2023/12/26 02:01:53;;;;;;;99.00;42.53;;;2.40;99.90;;;;;;5136537;27;20027;-75
2023/12/26 02:04:18;;;;;;;80.28;42.97;;;2.40;99.90;;;;;;5117968;27;20043;-75
2023/12/26 02:06:44;;;;;;;84.70;42.00;;;2.40;99.90;;;;;;5136330;27;20023;-75
2023/12/26 02:09:10;;;;;;;99.32;45.42;;;2.30;99.90;;;;;;5118152;28;20550;-75
2023/12/26 02:11:38;;;;;;;111.80;45.00;;;2.30;99.90;;;;;;5136403;28;20024;-76
2023/12/26 02:14:05;;;;;;;79.35;42.72;;;2.30;99.90;;;;;;5136488;28;20019;-75
2023/12/26 02:16:34;;;;;;;95.85;43.90;;;2.30;99.90;;;;;;5136118;28;20047;-75
2023/12/26 02:18:59;;;;;;;77.03;38.75;;;2.30;99.90;;;;;;5131398;28;20153;-75
2023/12/26 02:21:25;;;;;;;79.50;39.80;;;2.30;99.90;;;;;;5117396;28;20091;-75
2023/12/26 02:23:55;;;;;;;99.20;43.55;;;2.30;99.90;;;;;;5118211;28;20402;-75
2023/12/26 02:26:23;;;;;;;71.18;38.40;;;2.30;99.90;;;;;;5117825;28;20398;-74
2023/12/26 02:28:50;;;;;;;130.63;45.10;;;2.30;99.90;;;;;;5117717;28;20031;-76
2023/12/26 02:31:17;;;;;;;85.55;43.33;;;2.30;99.90;;;;;;5136138;28;20035;-75
2023/12/26 02:33:47;;;;;;;127.70;50.83;;;2.30;99.90;;;;;;5136000;28;20027;-75
2023/12/26 02:36:13;;;;;;;102.30;43.73;;;2.30;99.90;;;;;;5135314;28;20097;-76
2023/12/26 02:38:39;;;;;;;80.97;40.28;;;2.30;99.90;;;;;;5117405;28;20031;-75
2023/12/26 02:41:05;;;;;;;112.65;48.60;;;2.30;99.90;;;;;;5116686;28;20559;-75
2023/12/26 02:43:32;;;;;;;106.45;45.38;;;2.30;99.90;;;;;;5114667;28;20047;-75
2023/12/26 02:45:58;;;;;;;87.18;43.67;;;2.30;99.90;;;;;;5135549;28;20023;-75
2023/12/26 02:48:24;;;;;;;80.50;42.47;;;2.40;99.90;;;;;;5135837;28;20019;-76
2023/12/26 02:50:49;;;;;;;73.90;40.38;;;2.50;99.90;;;;;;5114178;28;20141;-76
2023/12/26 02:53:15;;;;;;;83.40;40.75;;;2.50;99.90;;;;;;5114214;28;20047;-75
2023/12/26 02:55:40;;;;;;;97.47;42.50;;;2.60;99.90;;;;;;5114055;28;20040;-76
2023/12/26 02:58:06;;;;;;;80.57;41.63;;;2.60;99.90;;;;;;5109143;28;20023;-75
2023/12/26 03:00:32;;;;;;;73.68;39.35;;;2.60;99.90;;;;;;5118078;28;20031;-76
2023/12/26 03:02:57;;;;;;;171.52;44.65;;;2.60;99.90;;;;;;5133063;27;20030;-76
2023/12/26 03:05:23;;;;;;;248.82;49.60;;;2.60;99.90;;;;;;5139762;27;20048;-76
2023/12/26 03:07:49;;;;;;;83.53;40.60;;;2.70;99.90;;;;;;5139692;27;20106;-76
2023/12/26 03:10:15;;;;;;;121.70;43.72;;;2.70;99.90;;;;;;5117279;28;20554;-76
2023/12/26 03:12:41;;;;;;;330.35;53.53;;;2.80;99.90;;;;;;5111152;28;20458;-75
2023/12/26 03:15:07;;;;;;;97.65;41.03;;;2.70;99.90;;;;;;5139470;27;20047;-75
2023/12/26 03:17:33;;;;;;;173.52;46.55;;;2.70;99.90;;;;;;5121090;27;20019;-75
2023/12/26 03:19:59;;;;;;;87.20;39.25;;;2.80;99.90;;;;;;5117288;28;20028;-75
2023/12/26 03:22:25;;;;;;;97.93;43.35;;;2.80;99.90;;;;;;5114232;27;20027;-75
2023/12/26 03:24:50;;;;;;;184.98;66.65;;;2.80;99.90;;;;;;5135557;27;20399;-75
2023/12/26 03:27:16;;;;;;;189.43;88.00;;;2.80;99.90;;;;;;5132635;27;20034;-75
2023/12/26 03:29:41;;;;;;;792.55;260.20;;;2.80;99.90;;;;;;5139313;27;20489;-76
2023/12/26 03:32:09;;;;;;;319.13;116.90;;;2.80;99.90;;;;;;5139297;27;20722;-76
2023/12/26 03:34:37;;;;;;;134.75;49.70;;;2.90;99.90;;;;;;5139124;27;20038;-75
2023/12/26 03:37:03;;;;;;;170.00;49.40;;;2.80;99.90;;;;;;5120349;27;20030;-75
2023/12/26 03:39:28;;;;;;;145.73;45.65;;;2.80;99.90;;;;;;5120697;27;20023;-75
2023/12/26 03:41:54;;;;;;;180.55;48.65;;;2.80;99.90;;;;;;5133073;27;20034;-75
2023/12/26 03:44:20;;;;;;;117.93;44.03;;;2.80;99.90;;;;;;5138095;27;20061;-75
2023/12/26 03:46:45;;;;;;;150.45;46.90;;;2.80;99.90;;;;;;5119983;27;20023;-76
2023/12/26 03:49:11;;;;;;;95.18;39.58;;;2.70;99.90;;;;;;5119434;27;20019;-76
2023/12/26 03:51:37;;;;;;;116.13;41.33;;;2.80;99.90;;;;;;5138402;27;20011;-76
2023/12/26 03:54:03;;;;;;;114.57;39.97;;;2.80;99.90;;;;;;5120639;27;20046;-76
2023/12/26 03:56:33;;;;;;;142.32;46.45;;;2.80;99.90;;;;;;5138530;27;20489;-76
2023/12/26 03:59:00;;;;;;;95.80;35.90;;;2.80;99.90;;;;;;5138767;27;20509;-75
2023/12/26 04:01:26;;;;;;;113.53;37.22;;;2.80;99.90;;;;;;5120156;27;20103;-75
2023/12/26 04:03:52;;;;;;;142.55;46.13;;;2.80;99.90;;;;;;5138356;27;20055;-75
2023/12/26 04:06:18;;;;;;;74.75;36.60;;;2.80;99.90;;;;;;5137325;27;20022;-75
2023/12/26 04:08:44;;;;;;;65.53;29.83;;;2.90;99.90;;;;;;5119681;27;20035;-76
2023/12/26 04:11:10;;;;;;;74.05;34.60;;;2.90;99.90;;;;;;5137470;27;20075;-76
2023/12/26 04:13:36;;;;;;;60.80;28.42;;;2.90;99.90;;;;;;5138506;27;20027;-75
2023/12/26 04:16:02;;;;;;;80.03;30.02;;;2.90;99.90;;;;;;5138010;27;20921;-76
2023/12/26 04:18:28;;;;;;;46.38;24.50;;;2.90;99.90;;;;;;5137723;27;20024;-76
2023/12/26 04:20:54;;;;;;;55.70;24.95;;;2.90;99.90;;;;;;5117495;27;20031;-76
2023/12/26 04:23:20;;;;;;;88.38;27.25;;;2.90;99.90;;;;;;5138355;27;20376;-76
2023/12/26 04:25:45;;;;;;;62.70;26.98;;;2.90;99.90;;;;;;5119658;27;20015;-75
2023/12/26 04:28:11;;;;;;;44.08;22.73;;;2.80;99.90;;;;;;5119829;27;20038;-75
2023/12/26 04:30:37;;;;;;;57.15;22.25;;;2.90;99.90;;;;;;5129335;27;20028;-75
2023/12/26 04:33:05;;;;;;;47.58;22.45;;;2.90;99.90;;;;;;5110341;27;20038;-75
2023/12/26 04:35:31;;;;;;;55.25;24.90;;;2.90;99.90;;;;;;5133347;27;20030;-75
2023/12/26 04:37:56;;;;;;;65.97;22.67;;;3.00;99.90;;;;;;5133239;27;20031;-76
2023/12/26 04:40:22;;;;;;;45.45;20.00;;;3.00;99.90;;;;;;5132957;27;20019;-75
2023/12/26 04:42:48;;;;;;;74.88;21.20;;;2.90;99.90;;;;;;5114720;27;20027;-76
2023/12/26 04:45:14;;;;;;;55.85;21.95;;;2.90;99.90;;;;;;5133559;27;20079;-75
2023/12/26 04:47:39;;;;;;;67.13;21.73;;;2.90;99.90;;;;;;5132643;27;20106;-76
2023/12/26 04:50:05;;;;;;;79.53;23.63;;;2.90;99.90;;;;;;5111660;27;20479;-75
2023/12/26 04:52:31;;;;;;;45.03;19.35;;;2.90;99.90;;;;;;5132849;27;20023;-75
2023/12/26 04:54:57;;;;;;;88.05;22.48;;;2.90;99.90;;;;;;5114495;27;20043;-76
2023/12/26 04:57:22;;;;;;;63.20;22.83;;;2.90;99.90;;;;;;5133201;27;20027;-75
2023/12/26 04:59:48;;;;;;;60.17;18.33;;;2.90;99.90;;;;;;5114464;27;20027;-76
2023/12/26 05:02:14;;;;;;;72.53;17.65;;;2.90;99.90;;;;;;5129002;27;20031;-76
2023/12/26 05:04:39;;;;;;;50.13;17.23;;;2.90;99.90;;;;;;5104485;27;20095;-75
2023/12/26 05:07:07;;;;;;;59.17;17.00;;;2.90;99.90;;;;;;5132892;27;20056;-76
2023/12/26 05:09:33;;;;;;;147.27;27.13;;;2.90;99.90;;;;;;5132706;27;20043;-75
2023/12/26 05:11:59;;;;;;;80.40;18.15;;;2.90;99.90;;;;;;5114346;27;20537;-75
2023/12/26 05:14:25;;;;;;;37.53;15.40;;;2.90;99.90;;;;;;5113644;27;20046;-75
2023/12/26 05:16:50;;;;;;;75.57;17.55;;;2.90;99.90;;;;;;5132748;27;20030;-75
2023/12/26 05:19:17;;;;;;;30.90;14.88;;;2.80;99.90;;;;;;5132283;27;20495;-75
2023/12/26 05:21:43;;;;;;;40.42;16.27;;;2.80;99.90;;;;;;5113161;27;20051;-76
2023/12/26 05:24:09;;;;;;;31.58;14.88;;;2.80;99.90;;;;;;5113824;27;20047;-76
2023/12/26 05:26:44;;;;;;;37.38;13.80;;;2.80;99.90;;;;;;5113932;27;20034;-75
2023/12/26 05:29:10;;;;;;;95.65;30.60;;;2.70;99.90;;;;;;5108867;27;20051;-75
2023/12/26 05:31:37;;;;;;;34.83;16.25;;;2.70;99.90;;;;;;5132284;27;20020;-75
2023/12/26 05:34:05;;;;;;;31.98;14.57;;;2.60;99.90;;;;;;5103325;27;20038;-76
2023/12/26 05:36:31;;;;;;;35.55;15.68;;;2.60;99.90;;;;;;5128148;27;20035;-76
2023/12/26 05:38:57;;;;;;;31.00;15.80;;;2.60;99.90;;;;;;5131896;27;20022;-75
2023/12/26 05:41:24;;;;;;;30.80;15.02;;;2.60;99.90;;;;;;5132331;27;20118;-76
2023/12/26 05:43:50;;;;;;;29.98;15.93;;;2.50;99.90;;;;;;5113336;27;20026;-76
2023/12/26 05:46:17;;;;;;;35.55;16.23;;;2.50;99.90;;;;;;5131721;27;20027;-76
2023/12/26 05:48:43;;;;;;;28.67;17.25;;;2.50;99.90;;;;;;5125867;27;20383;-76
2023/12/26 05:51:08;;;;;;;89.93;22.88;;;2.40;99.90;;;;;;5108010;27;20066;-76
2023/12/26 05:53:34;;;;;;;179.23;26.63;;;2.30;99.90;;;;;;5131009;27;20104;-77
2023/12/26 05:56:00;;;;;;;152.23;24.55;;;2.30;99.90;;;;;;5130826;27;20023;-76
2023/12/26 05:58:25;;;;;;;130.05;24.73;;;2.20;99.90;;;;;;5130604;27;20019;-76
2023/12/26 06:00:52;;;;;;;193.35;21.13;;;2.30;99.90;;;;;;5130443;27;20030;-76
2023/12/26 06:03:17;;;;;;;137.15;21.02;;;2.20;99.90;;;;;;5112813;27;20061;-76
2023/12/26 06:05:43;;;;;;;71.22;17.40;;;2.20;99.90;;;;;;5128208;27;20063;-76
2023/12/26 06:08:09;;;;;;;196.48;24.23;;;2.20;99.90;;;;;;5107921;28;20094;-76
2023/12/26 06:10:34;;;;;;;89.25;22.67;;;2.20;99.90;;;;;;5132035;27;20509;-76
2023/12/26 06:13:00;;;;;;;65.95;17.65;;;2.30;99.90;;;;;;5112300;28;20382;-75
2023/12/26 06:15:26;;;;;;;148.18;24.15;;;2.20;99.90;;;;;;5131148;28;20023;-75
2023/12/26 06:17:51;;;;;;;118.95;34.17;;;2.10;99.90;;;;;;5130150;28;20019;-76
2023/12/26 06:20:21;;;;;;;123.05;26.65;;;2.10;99.90;;;;;;5128313;28;20024;-76
2023/12/26 06:22:47;;;;;;;61.33;21.47;;;2.00;99.90;;;;;;5131610;28;20046;-76
2023/12/26 06:25:12;;;;;;;133.70;28.33;;;2.10;99.90;;;;;;5131804;28;20104;-76
2023/12/26 06:27:38;;;;;;;261.08;34.75;;;2.10;99.90;;;;;;5132008;28;20923;-75
2023/12/26 06:30:04;;;;;;;165.80;27.67;;;2.10;99.90;;;;;;5112848;28;20031;-76
2023/12/26 06:32:30;;;;;;;363.65;37.72;;;1.90;99.90;;;;;;5131739;27;20491;-75
2023/12/26 06:34:56;;;;;;;233.68;30.48;;;1.90;99.90;;;;;;5134985;27;20428;-75
2023/12/26 06:37:21;;;;;;;217.88;27.98;;;1.80;99.90;;;;;;5132108;27;20505;-76
2023/12/26 06:39:47;;;;;;;121.60;24.80;;;1.80;99.90;;;;;;5129615;27;20023;-76
2023/12/26 06:42:13;;;;;;;315.90;35.83;;;1.80;99.90;;;;;;5124808;27;20043;-76
2023/12/26 06:44:38;;;;;;;230.80;30.65;;;1.90;99.90;;;;;;5117282;27;20030;-75
2023/12/26 06:47:04;;;;;;;161.98;27.85;;;1.90;99.90;;;;;;5135597;27;20812;-76
2023/12/26 06:49:30;;;;;;;206.88;24.65;;;1.80;99.90;;;;;;5134586;27;20035;-75
2023/12/26 06:51:55;;;;;;;198.88;25.70;;;1.80;99.90;;;;;;5134402;27;20038;-75
2023/12/26 06:54:21;;;;;;;214.32;27.90;;;1.80;99.90;;;;;;5132290;27;20427;-76
2023/12/26 06:56:47;;;;;;;290.02;33.13;;;1.80;99.90;;;;;;5135391;27;20019;-75
2023/12/26 06:59:13;;;;;;;274.45;32.15;;;1.70;99.90;;;;;;5114073;27;20051;-75
2023/12/26 07:01:48;;;;;;;283.23;34.47;;;1.70;99.90;;;;;;5135305;27;20019;-75
2023/12/26 07:04:14;;;;;;;243.18;30.92;;;1.70;99.90;;;;;;5135344;27;20031;-74
2023/12/26 07:06:39;;;;;;;101.30;22.85;;;1.80;99.90;;;;;;5135134;27;20023;-76
2023/12/26 07:09:05;;;;;;;90.13;22.50;;;1.90;99.90;;;;;;5116388;27;20042;-76
2023/12/26 07:11:31;;;;;;;79.68;19.35;;;1.90;99.90;;;;;;5113719;27;20030;-76
2023/12/26 07:13:56;;;;;;;88.38;19.50;;;1.90;99.90;;;;;;5125162;27;20118;-76
2023/12/26 07:16:22;;;;;;;88.28;19.15;;;1.90;99.90;;;;;;5134994;27;20380;-76
2023/12/26 07:18:47;;;;;;;150.45;25.25;;;1.90;99.90;;;;;;5131208;27;20024;-76
2023/12/26 07:21:16;;;;;;;79.00;19.63;;;1.70;99.90;;;;;;5115802;27;20031;-76
2023/12/26 07:23:44;;;;;;;56.40;20.30;;;1.60;99.90;;;;;;5134989;27;20506;-76
2023/12/26 07:26:11;;;;;;;65.60;19.08;;;1.60;99.90;;;;;;5115666;27;20035;-76
2023/12/26 07:28:37;;;;;;;55.67;20.33;;;1.50;99.90;;;;;;5133806;27;20130;-76
2023/12/26 07:31:03;;;;;;;33.53;18.45;;;1.50;99.90;;;;;;5134565;27;20122;-76
2023/12/26 07:33:28;;;;;;;68.68;20.55;;;1.50;99.90;;;;;;5134329;27;20035;-83
2023/12/26 07:35:57;;;;;;;77.25;21.48;;;1.50;99.90;;;;;;5134794;27;20083;-82
2023/12/26 07:38:24;;;;;;;64.22;19.25;;;1.50;99.90;;;;;;5135214;27;20471;-83
2023/12/26 07:40:50;;;;;;;47.80;18.30;;;1.50;99.90;;;;;;5113193;27;20495;-84
2023/12/26 07:43:16;;;;;;;41.53;18.65;;;1.50;99.90;;;;;;5108411;27;20159;-79
2023/12/26 07:45:42;;;;;;;70.97;19.83;;;1.40;99.90;;;;;;5119879;27;20024;-79
2023/12/26 07:48:08;;;;;;;64.57;20.63;;;1.40;99.90;;;;;;5134625;27;20031;-79
2023/12/26 07:50:34;;;;;;;36.47;18.75;;;1.40;99.90;;;;;;5132156;27;20135;-80
2023/12/26 07:52:59;;;;;;;37.13;18.55;;;1.40;99.90;;;;;;5132878;27;20023;-79
2023/12/26 07:55:25;;;;;;;32.08;18.27;;;1.30;99.90;;;;;;5129070;27;20046;-79
2023/12/26 07:57:51;;;;;;;54.28;19.17;;;1.20;99.90;;;;;;5133510;27;20075;-80
2023/12/26 08:00:17;;;;;;;45.63;18.13;;;1.30;99.90;;;;;;5115951;27;20026;-79
2023/12/26 08:02:42;;;;;;;44.50;18.40;;;1.30;99.90;;;;;;5124461;27;20032;-81
2023/12/26 08:05:09;;;;;;;59.97;18.70;;;1.40;99.90;;;;;;5129278;27;20068;-80
2023/12/26 08:07:35;;;;;;;51.92;19.63;;;1.40;99.90;;;;;;5134095;27;20027;-78
2023/12/26 08:10:00;;;;;;;66.55;19.38;;;1.50;99.90;;;;;;5134170;27;20030;-81
2023/12/26 08:12:26;;;;;;;52.60;17.05;;;1.60;99.90;;;;;;5133071;27;20171;-82
2023/12/26 08:14:51;;;;;;;89.05;19.20;;;1.60;99.90;;;;;;5110730;27;20030;-81
2023/12/26 08:17:17;;;;;;;100.63;20.67;;;1.60;99.90;;;;;;5116829;27;20027;-81
2023/12/26 08:19:43;;;;;;;43.97;19.17;;;1.70;99.90;;;;;;5121014;27;20023;-81
2023/12/26 08:22:08;;;;;;;57.17;18.35;;;1.70;99.90;;;;;;5115602;27;20038;-79
2023/12/26 08:24:34;;;;;;;88.57;19.85;;;1.70;99.90;;;;;;5115392;27;20055;-79
2023/12/26 08:27:00;;;;;;;43.15;17.10;;;1.70;99.90;;;;;;5134523;27;20035;-81
2023/12/26 08:29:26;;;;;;;73.97;18.83;;;1.80;99.90;;;;;;5118754;27;20026;-81
2023/12/26 08:31:53;;;;;;;93.10;19.83;;;1.80;99.90;;;;;;5136714;27;20479;-80
2023/12/26 08:34:19;;;;;;;66.55;18.15;;;1.80;99.90;;;;;;5118705;27;20106;-80
2023/12/26 08:36:45;;;;;;;35.35;14.23;;;1.70;99.90;;;;;;5131721;27;20028;-80
2023/12/26 08:39:11;;;;;;;52.72;15.70;;;1.90;99.90;;;;;;5118475;27;20030;-80
2023/12/26 08:41:37;;;;;;;100.78;18.40;;;2.00;99.90;;;;;;5137153;27;20054;-80
2023/12/26 08:44:03;;;;;;;139.25;21.67;;;1.80;99.90;;;;;;5137496;27;20046;-79
2023/12/26 08:46:29;;;;;;;140.57;22.63;;;1.80;99.90;;;;;;5137210;27;20376;-80
2023/12/26 08:48:55;;;;;;;116.40;25.92;;;1.60;99.90;;;;;;5136040;27;20030;-80
2023/12/26 08:51:20;;;;;;;161.02;23.88;;;1.70;99.90;;;;;;5117844;27;20027;-80
2023/12/26 08:53:47;;;;;;;104.45;17.20;;;1.70;99.90;;;;;;5117777;27;20030;-79
2023/12/26 08:56:13;;;;;;;49.03;15.70;;;1.90;99.90;;;;;;5136738;27;20106;-80
2023/12/26 08:58:39;;;;;;;80.00;16.83;;;1.90;99.90;;;;;;5137335;27;20019;-80
2023/12/26 09:01:06;;;;;;;116.80;23.48;;;2.00;99.90;;;;;;5109517;28;20103;-80
2023/12/26 09:03:32;;;;;;;427.67;103.78;;;2.00;99.90;;;;;;5135139;27;20011;-81
2023/12/26 09:05:57;;;;;;;318.23;89.63;;;2.00;99.90;;;;;;5137533;27;20023;-80
2023/12/26 09:08:23;;;;;;;47.92;20.48;;;2.10;99.90;;;;;;5131549;27;20831;-80
2023/12/26 09:10:49;;;;;;;45.80;16.63;;;2.20;99.90;;;;;;5127051;27;20057;-80
2023/12/26 09:13:16;;;;;;;44.42;17.10;;;2.30;99.90;;;;;;5133959;27;20117;-80
2023/12/26 09:15:43;;;;;;;38.72;16.63;;;2.30;99.90;;;;;;5129327;27;20027;-80
2023/12/26 09:18:09;;;;;;;33.35;15.00;;;2.40;99.90;;;;;;5136357;27;20110;-80
2023/12/26 09:20:34;;;;;;;28.23;16.60;;;2.50;99.90;;;;;;5132200;27;20030;-80
2023/12/26 09:23:00;;;;;;;42.10;18.00;;;2.60;99.90;;;;;;5117682;27;20052;-80
2023/12/26 09:25:25;;;;;;;47.00;16.63;;;2.60;99.90;;;;;;5118083;27;20050;-80
2023/12/26 09:27:51;;;;;;;132.00;45.85;;;2.70;99.90;;;;;;5136047;27;20052;-80
2023/12/26 09:30:18;;;;;;;72.20;27.73;;;2.70;99.90;;;;;;5117361;27;20030;-80
2023/12/26 09:32:43;;;;;;;38.75;19.50;;;2.80;99.90;;;;;;5114821;28;20024;-80
2023/12/26 09:35:09;;;;;;;44.55;16.38;;;2.90;99.90;;;;;;5117223;27;20081;-80
2023/12/26 09:37:38;;;;;;;54.95;27.58;;;3.00;99.90;;;;;;5137236;27;20024;-82
2023/12/26 09:40:06;;;;;;;35.28;19.02;;;3.10;99.90;;;;;;5118187;27;20604;-80
2023/12/26 09:42:32;;;;;;;28.65;16.67;;;3.30;99.90;;;;;;5117325;27;20046;-79
2023/12/26 09:44:58;;;;;;;35.13;18.33;;;3.40;99.90;;;;;;5118396;27;20023;-82
2023/12/26 09:47:25;;;;;;;36.92;23.98;;;3.50;99.90;;;;;;5136964;27;20022;-83
2023/12/26 09:49:51;;;;;;;35.30;24.15;;;3.70;99.90;;;;;;5137156;27;20019;-83
2023/12/26 09:52:17;;;;;;;46.60;24.90;;;3.80;99.90;;;;;;5133376;27;20034;-79
2023/12/26 09:54:44;;;;;;;34.15;22.98;;;3.90;99.90;;;;;;5106330;28;20101;-83
2023/12/26 09:57:10;;;;;;;35.17;23.08;;;4.00;99.90;;;;;;5116686;27;20019;-83
2023/12/26 09:59:37;;;;;;;33.65;23.05;;;4.10;99.90;;;;;;5111239;28;20031;-81
2023/12/26 10:02:04;;;;;;;28.90;22.05;;;4.20;99.90;;;;;;5132623;27;20026;-83
2023/12/26 10:04:30;;;;;;;35.60;23.05;;;4.40;99.90;;;;;;5124156;27;20040;-83
2023/12/26 10:06:56;;;;;;;31.75;22.02;;;4.40;99.90;;;;;;5134738;27;20027;-82
2023/12/26 10:09:22;;;;;;;29.00;21.70;;;4.30;99.90;;;;;;5136771;27;20015;-83
2023/12/26 10:11:47;;;;;;;26.13;20.92;;;4.40;99.90;;;;;;5136583;27;20131;-80
2023/12/26 10:14:29;;;;;;;27.40;19.90;;;4.50;99.90;;;;;;5136906;28;20019;-81
2023/12/26 10:16:55;;;;;;;26.27;19.63;;;4.50;99.90;;;;;;5116604;28;20143;-80
2023/12/26 10:19:21;;;;;;;31.58;21.08;;;4.50;99.90;;;;;;5111411;28;20023;-80
2023/12/26 10:21:47;;;;;;;30.10;20.38;;;4.70;99.90;;;;;;5136474;28;20098;-81
2023/12/26 10:24:13;;;;;;;24.73;19.35;;;4.70;99.90;;;;;;5136721;28;20095;-82
2023/12/26 10:26:38;;;;;;;35.08;19.50;;;4.70;99.90;;;;;;5137049;28;20110;-82
2023/12/26 10:29:04;;;;;;;24.40;17.15;;;4.60;99.90;;;;;;5136906;28;20437;-78
2023/12/26 10:31:30;;;;;;;26.77;18.73;;;4.50;99.90;;;;;;5136902;28;20430;-82
2023/12/26 10:33:55;;;;;;;26.02;18.48;;;4.50;99.90;;;;;;5115878;28;20114;-82
2023/12/26 10:36:21;;;;;;;80.43;23.45;;;4.60;99.90;;;;;;5136599;28;20023;-82
2023/12/26 10:38:48;;;;;;;26.17;20.05;;;4.50;99.90;;;;;;5115252;28;20015;-82
2023/12/26 10:41:27;;;;;;;27.65;19.98;;;4.50;99.90;;;;;;5136568;28;20428;-83
2023/12/26 10:43:59;;;;;;;24.13;17.20;;;4.80;99.90;;;;;;5105416;28;20048;-82
2023/12/26 10:46:25;;;;;;;31.23;21.88;;;4.80;99.90;;;;;;5118127;28;20505;-82
2023/12/26 10:48:54;;;;;;;41.53;25.15;;;4.80;99.90;;;;;;5118582;28;20023;-82
2023/12/26 10:51:25;;;;;;;35.42;23.88;;;4.70;99.90;;;;;;5137270;28;20386;-82
2023/12/26 10:53:59;;;;;;;40.10;26.42;;;4.80;99.90;;;;;;5137052;28;20411;-82
2023/12/26 10:56:26;;;;;;;31.98;21.92;;;4.90;99.90;;;;;;5137122;28;20074;-82
2023/12/26 10:58:53;;;;;;;42.38;26.52;;;4.90;99.90;;;;;;5137048;28;20547;-81
2023/12/26 11:01:19;;;;;;;46.33;25.83;;;4.90;99.90;;;;;;5115638;28;20076;-83
2023/12/26 13:53:35;;;;;;;18.70;14.70;;;7.80;99.90;;;;;;5135651;27;20122;-76
2023/12/26 13:56:38;;;;;;;24.50;16.80;;;7.80;99.90;;;;;;5134860;27;20039;-75
2023/12/26 13:59:41;;;;;;;19.48;16.38;;;7.90;99.90;;;;;;5135299;27;20428;-76
2023/12/26 14:02:44;;;;;;;17.20;14.27;;;7.90;99.90;;;;;;5135352;27;20072;-76
2023/12/26 14:05:48;;;;;;;15.88;13.38;;;7.90;99.90;;;;;;5135427;27;20063;-75
2023/12/26 14:08:51;;;;;;;16.98;12.52;;;7.90;99.90;;;;;;5134373;27;20526;-76
2023/12/26 14:11:55;;;;;;;16.83;13.38;;;7.80;99.90;;;;;;5117448;27;20027;-76
2023/12/26 14:14:58;;;;;;;15.18;12.75;;;7.80;99.90;;;;;;5126204;27;20042;-76
2023/12/26 14:18:02;;;;;;;15.93;13.45;;;7.70;99.90;;;;;;5124928;27;20051;-76
2023/12/26 14:21:05;;;;;;;16.25;13.45;;;7.60;99.90;;;;;;5112973;27;20031;-76
2023/12/26 14:24:08;;;;;;;17.10;13.35;;;7.40;99.90;;;;;;5132950;27;20100;-76
2023/12/26 14:27:11;;;;;;;15.20;13.13;;;7.30;99.90;;;;;;5134370;27;20023;-77
2023/12/26 14:30:14;;;;;;;20.27;13.80;;;7.10;99.90;;;;;;5135440;27;20027;-76
2023/12/26 14:33:21;;;;;;;19.83;14.38;;;6.90;99.90;;;;;;5134850;27;20023;-77
2023/12/26 14:36:25;;;;;;;18.67;15.52;;;6.60;99.90;;;;;;5113361;28;20031;-76
2023/12/26 14:39:27;;;;;;;19.10;15.75;;;6.40;99.90;;;;;;5134777;28;20015;-77
2023/12/26 14:42:31;;;;;;;19.08;14.48;;;6.20;99.90;;;;;;5114107;28;20028;-77
2023/12/26 14:45:34;;;;;;;20.98;15.65;;;6.10;99.90;;;;;;5135055;27;20072;-77
2023/12/26 14:48:37;;;;;;;20.45;16.45;;;5.90;99.90;;;;;;5135932;28;20031;-78
2023/12/26 14:51:40;;;;;;;23.02;18.42;;;5.70;99.90;;;;;;5133378;27;20050;-76
2023/12/26 14:54:43;;;;;;;22.40;16.83;;;5.60;99.90;;;;;;5133208;27;20112;-76
2023/12/26 14:57:47;;;;;;;23.50;16.83;;;5.50;99.90;;;;;;5129494;27;20376;-76
2023/12/26 15:00:50;;;;;;;20.60;16.63;;;5.40;99.90;;;;;;5137204;27;20031;-75
2023/12/26 15:03:15;;;;;;;23.83;17.55;;;5.40;99.90;;;;;;5139531;27;20050;-76
2023/12/26 15:05:42;;;;;;;22.02;18.48;;;5.30;99.90;;;;;;5117838;28;20030;-76
2023/12/26 15:08:07;;;;;;;24.70;18.48;;;5.20;99.90;;;;;;5130462;27;20024;-76
2023/12/26 15:10:34;;;;;;;26.10;20.42;;;5.20;99.90;;;;;;5118606;27;20687;-76
2023/12/26 15:13:02;;;;;;;25.05;20.02;;;5.10;99.90;;;;;;5117822;28;20054;-76
2023/12/26 15:15:28;;;;;;;23.83;19.13;;;5.10;99.90;;;;;;5137270;27;20027;-76
2023/12/26 15:17:54;;;;;;;24.20;18.52;;;5.00;99.90;;;;;;5118868;27;20019;-76
2023/12/26 15:20:20;;;;;;;27.15;20.30;;;4.90;99.90;;;;;;5137169;27;20026;-76
2023/12/26 15:22:46;;;;;;;26.67;20.35;;;4.80;99.90;;;;;;5138042;27;20494;-76
2023/12/26 15:25:12;;;;;;;28.35;20.52;;;4.80;99.90;;;;;;5138604;27;20031;-76
2023/12/26 15:27:38;;;;;;;29.85;21.65;;;4.70;99.90;;;;;;5119707;27;20355;-76
2023/12/26 15:30:04;;;;;;;27.25;20.35;;;4.70;99.90;;;;;;5139237;27;20027;-76